createdAt,value
2019-01-20T00:02:43.313Z,46.57
2019-01-20T00:07:46.798Z,46.62
2019-01-20T00:12:50.281Z,46.66
2019-01-20T00:17:53.786Z,46.69
2019-01-20T00:22:57.334Z,46.68
2019-01-20T00:28:00.837Z,46.67
2019-01-20T00:33:04.320Z,46.45
2019-01-20T00:38:07.799Z,46.72
2019-01-20T00:43:11.286Z,46.76
2019-01-20T00:48:14.766Z,46.77
2019-01-20T00:53:18.250Z,46.81
2019-01-20T00:58:21.730Z,46.81
2019-01-20T01:03:25.216Z,46.81
2019-01-20T01:08:28.695Z,46.81
2019-01-20T01:13:32.174Z,46.79
2019-01-20T01:18:35.662Z,46.82
2019-01-20T01:23:39.138Z,46.79
2019-01-20T01:28:42.619Z,46.78
2019-01-20T01:33:46.098Z,46.78
2019-01-20T01:38:49.587Z,46.69
2019-01-20T01:43:53.066Z,46.76
2019-01-20T01:48:56.550Z,46.83
2019-01-20T01:54:00.043Z,46.89
2019-01-20T01:59:03.525Z,46.96
2019-01-20T02:04:07.007Z,46.97
2019-01-20T02:09:10.491Z,46.98
2019-01-20T02:14:13.979Z,46.96
2019-01-20T02:19:17.464Z,46.97
2019-01-20T02:24:20.947Z,46.98
2019-01-20T02:29:24.451Z,46.98
2019-01-20T02:34:27.934Z,46.98
2019-01-20T02:39:31.419Z,46.96
2019-01-20T02:44:34.899Z,46.97
2019-01-20T02:49:38.384Z,46.96
2019-01-20T02:54:41.866Z,46.95
2019-01-20T02:59:45.351Z,46.97
2019-01-20T03:04:48.835Z,46.94
2019-01-20T03:09:52.316Z,46.97
2019-01-20T03:14:55.800Z,46.93
2019-01-20T03:19:59.285Z,46.91
2019-01-20T03:25:02.787Z,46.86
2019-01-20T03:30:09.310Z,46.81
2019-01-20T03:35:14.232Z,46.87
2019-01-20T03:40:19.460Z,46.86
2019-01-20T03:45:22.941Z,46.88
2019-01-20T03:50:26.427Z,46.85
2019-01-20T03:55:30.082Z,46.85
2019-01-20T04:00:33.570Z,46.86
2019-01-20T04:05:37.063Z,46.88
2019-01-20T04:10:40.546Z,46.86
2019-01-20T04:15:44.032Z,46.85
2019-01-20T04:20:47.519Z,46.82
2019-01-20T04:25:51.010Z,46.78
2019-01-20T04:30:54.509Z,46.77
2019-01-20T04:35:57.999Z,46.75
2019-01-20T04:41:01.479Z,46.79
2019-01-20T04:46:05.131Z,46.78
2019-01-20T04:51:08.686Z,46.78
2019-01-20T04:56:12.177Z,46.80
2019-01-20T05:01:15.665Z,46.77
2019-01-20T05:06:19.150Z,46.78
2019-01-20T05:11:22.637Z,46.79
2019-01-20T05:16:26.121Z,46.79
2019-01-20T05:21:29.604Z,46.80
2019-01-20T05:26:33.083Z,46.74
2019-01-20T05:31:36.572Z,46.76
2019-01-20T05:36:40.058Z,46.74
2019-01-20T05:41:43.551Z,46.68
2019-01-20T05:46:47.032Z,46.75
2019-01-20T05:51:50.516Z,46.75
2019-01-20T05:56:54.002Z,46.75
2019-01-20T06:01:57.483Z,46.66
2019-01-20T06:07:00.973Z,46.66
2019-01-20T06:12:04.531Z,46.77
2019-01-20T06:17:08.015Z,46.77
2019-01-20T06:22:11.500Z,46.76
2019-01-20T06:27:14.981Z,46.75
2019-01-20T06:32:18.466Z,46.76
2019-01-20T06:37:21.954Z,46.56
2019-01-20T06:42:25.439Z,46.56
2019-01-20T06:47:28.933Z,46.70
2019-01-20T06:52:32.414Z,46.70
2019-01-20T06:57:35.900Z,46.67
2019-01-20T07:02:39.383Z,46.66
2019-01-20T07:07:42.934Z,46.68
2019-01-20T07:12:46.427Z,46.72
2019-01-20T07:17:49.909Z,46.73
2019-01-20T07:22:53.369Z,46.95
2019-01-20T07:27:56.834Z,47.21
2019-01-20T07:33:00.304Z,47.47
2019-01-20T07:38:03.942Z,47.62
2019-01-20T07:43:07.408Z,47.68
2019-01-20T07:48:10.882Z,47.72
2019-01-20T07:53:14.347Z,47.67
2019-01-20T07:58:17.810Z,47.69
2019-01-20T08:03:21.278Z,47.87
2019-01-20T08:08:24.751Z,30.42
2019-01-20T08:13:28.227Z,26.15
2019-01-20T08:18:31.704Z,31.68
2019-01-20T08:23:35.177Z,34.72
2019-01-20T08:28:38.641Z,36.80
2019-01-20T08:33:42.106Z,39.18
2019-01-20T08:38:45.570Z,40.42
2019-01-20T08:43:49.036Z,41.00
2019-01-20T08:48:52.504Z,41.36
2019-01-20T08:53:55.971Z,41.65
2019-01-20T08:58:59.462Z,41.98
2019-01-20T09:04:02.928Z,42.19
2019-01-20T09:09:07.684Z,42.32
2019-01-20T09:14:11.170Z,42.39
2019-01-20T09:19:14.778Z,42.52
2019-01-20T09:24:18.265Z,42.69
2019-01-20T09:29:21.752Z,42.87
2019-01-20T09:34:25.232Z,43.27
2019-01-20T09:39:28.722Z,43.49
2019-01-20T09:44:32.217Z,43.87
2019-01-20T09:49:35.698Z,44.19
2019-01-20T09:54:39.186Z,44.60
2019-01-20T09:59:42.675Z,44.95
2019-01-20T10:04:46.154Z,45.01
2019-01-20T10:09:49.802Z,45.21
2019-01-20T10:14:53.282Z,45.43
2019-01-20T10:19:56.776Z,45.58
2019-01-20T10:25:00.273Z,45.70
2019-01-20T10:30:05.116Z,45.80
2019-01-20T10:35:09.039Z,45.71
2019-01-20T10:40:12.601Z,45.67
2019-01-20T10:45:16.150Z,45.85
2019-01-20T10:50:19.805Z,45.97
2019-01-20T10:55:23.293Z,46.13
2019-01-20T11:00:32.250Z,46.43
2019-01-20T11:05:35.789Z,46.63
2019-01-20T11:10:40.157Z,46.65
2019-01-20T11:15:43.802Z,46.50
2019-01-20T11:20:47.270Z,46.27
2019-01-20T11:25:50.735Z,46.19
2019-01-20T11:30:54.197Z,46.21
2019-01-20T11:35:57.667Z,46.09
2019-01-20T11:41:01.149Z,45.99
2019-01-20T11:46:04.622Z,46.16
2019-01-20T11:51:08.095Z,46.44
2019-01-20T11:56:11.562Z,46.33
2019-01-20T12:01:15.032Z,46.18
2019-01-20T12:06:18.513Z,48.35
2019-01-20T12:11:21.990Z,48.40
2019-01-20T12:16:25.471Z,48.08
2019-01-20T12:21:29.003Z,47.95
2019-01-20T12:26:32.468Z,47.88
2019-01-20T12:31:35.935Z,47.99
2019-01-20T12:36:39.404Z,48.24
2019-01-20T12:41:42.886Z,48.44
2019-01-20T12:46:46.388Z,48.35
2019-01-20T12:51:49.873Z,48.46
2019-01-20T12:57:25.619Z,48.49
2019-01-20T13:02:29.108Z,48.30
2019-01-20T13:07:32.593Z,48.19
2019-01-20T13:12:36.137Z,48.19
2019-01-20T13:17:39.610Z,48.16
2019-01-20T13:22:43.096Z,48.00
2019-01-20T13:27:46.580Z,47.83
2019-01-20T13:32:50.066Z,47.62
2019-01-20T13:37:57.039Z,47.65
2019-01-20T13:43:02.434Z,47.71
2019-01-20T13:48:06.024Z,47.71
2019-01-20T13:53:09.504Z,47.79
2019-01-20T13:58:12.987Z,47.84
2019-01-20T14:03:16.475Z,47.88
2019-01-20T14:08:19.960Z,47.81
2019-01-20T14:13:23.488Z,47.84
2019-01-20T14:18:26.971Z,47.88
2019-01-20T14:23:30.461Z,47.97
2019-01-20T14:28:33.943Z,47.86
2019-01-20T14:33:37.427Z,47.87
2019-01-20T14:38:40.911Z,47.69
2019-01-20T14:43:44.418Z,47.61
2019-01-20T14:48:47.894Z,47.50
2019-01-20T14:53:51.375Z,47.36
2019-01-20T14:58:54.859Z,47.28
2019-01-20T15:03:58.332Z,47.32
2019-01-20T15:09:01.818Z,47.28
2019-01-20T15:14:05.439Z,47.24
2019-01-20T15:19:08.929Z,47.15
2019-01-20T15:24:12.414Z,47.17
2019-01-20T15:29:15.909Z,46.94
2019-01-20T15:34:19.392Z,47.09
2019-01-20T15:39:22.880Z,47.13
2019-01-20T15:44:26.354Z,47.12
2019-01-20T15:49:29.829Z,47.19
2019-01-20T15:54:33.319Z,47.18
2019-01-20T15:59:36.798Z,47.10
2019-01-20T16:04:40.282Z,47.11
2019-01-20T16:09:43.763Z,47.05
2019-01-20T16:14:47.242Z,47.02
2019-01-20T16:19:50.723Z,47.00
2019-01-20T16:24:54.207Z,46.99
2019-01-20T16:29:57.955Z,46.82
2019-01-20T16:35:01.445Z,46.91
2019-01-20T16:40:08.433Z,46.85
2019-01-20T16:45:17.553Z,46.78
2019-01-20T16:50:23.570Z,46.67
2019-01-20T16:55:28.229Z,46.63
2019-01-20T17:00:34.454Z,46.56
2019-01-20T17:05:37.943Z,46.56
2019-01-20T17:10:41.662Z,46.53
2019-01-20T17:15:45.315Z,46.69
2019-01-20T17:20:48.794Z,46.76
2019-01-20T17:25:52.279Z,46.71
2019-01-20T17:30:55.762Z,46.77
2019-01-20T17:35:59.244Z,46.87
2019-01-20T17:41:02.732Z,46.88
2019-01-20T17:46:06.224Z,46.97
2019-01-20T17:51:09.698Z,46.97
2019-01-20T17:56:13.179Z,46.99
2019-01-20T18:01:16.660Z,47.11
2019-01-20T18:06:20.143Z,47.38
2019-01-20T18:11:23.632Z,47.47
2019-01-20T18:16:27.119Z,47.77
2019-01-20T18:21:30.599Z,47.89
2019-01-20T18:26:34.083Z,48.03
2019-01-20T18:31:37.566Z,48.16
2019-01-20T18:36:41.051Z,48.30
2019-01-20T18:41:44.535Z,48.38
2019-01-20T18:46:48.385Z,48.47
2019-01-20T18:51:51.870Z,48.51
2019-01-20T18:56:55.355Z,48.47
2019-01-20T19:01:58.840Z,48.53
2019-01-20T19:07:02.391Z,48.45
2019-01-20T19:12:05.939Z,48.44
2019-01-20T19:17:09.425Z,48.43
2019-01-20T19:22:12.910Z,48.31
2019-01-20T19:27:16.390Z,48.31
2019-01-20T19:32:19.876Z,48.34
2019-01-20T19:37:23.356Z,48.29
2019-01-20T19:42:26.839Z,48.05
2019-01-20T19:47:30.322Z,47.79
2019-01-20T19:52:33.805Z,47.65
2019-01-20T19:57:37.291Z,47.54
2019-01-20T20:02:40.779Z,47.47
2019-01-20T20:07:44.500Z,47.44
2019-01-20T20:12:48.051Z,47.37
2019-01-20T20:17:51.603Z,47.33
2019-01-20T20:22:55.971Z,47.34
2019-01-20T20:27:59.443Z,47.35
2019-01-20T20:33:02.936Z,47.32
2019-01-20T20:38:06.419Z,47.36
2019-01-20T20:43:09.909Z,47.34
2019-01-20T20:48:13.390Z,47.38
2019-01-20T20:53:16.876Z,47.38
2019-01-20T20:58:20.364Z,47.34
2019-01-20T21:03:24.018Z,47.39
2019-01-20T21:08:27.499Z,47.41
2019-01-20T21:13:30.979Z,47.38
2019-01-20T21:18:34.462Z,47.39
2019-01-20T21:23:37.951Z,47.42
2019-01-20T21:28:41.423Z,47.44
2019-01-20T21:33:44.907Z,47.44
2019-01-20T21:38:48.394Z,47.47
2019-01-20T21:43:51.874Z,47.39
2019-01-20T21:48:55.359Z,47.38
2019-01-20T21:53:58.826Z,47.35
2019-01-20T21:59:02.290Z,47.42
2019-01-20T22:04:05.754Z,47.41
2019-01-20T22:09:09.292Z,47.45
2019-01-20T22:14:12.761Z,47.43
2019-01-20T22:19:16.227Z,47.40
2019-01-20T22:24:19.690Z,47.38
2019-01-20T22:29:23.155Z,47.42
2019-01-20T22:34:26.618Z,47.46
2019-01-20T22:39:30.092Z,47.52
2019-01-20T22:44:33.559Z,47.44
2019-01-20T22:49:37.027Z,47.39
2019-01-20T22:54:40.496Z,47.36
2019-01-20T22:59:43.967Z,47.42
2019-01-20T23:04:47.430Z,47.40
2019-01-20T23:09:50.895Z,47.45
2019-01-20T23:14:54.358Z,47.47
2019-01-20T23:19:57.823Z,47.48
2019-01-20T23:25:01.325Z,47.44
2019-01-20T23:30:07.799Z,47.43
2019-01-20T23:35:11.334Z,47.48
2019-01-20T23:40:16.340Z,47.50
2019-01-20T23:45:19.806Z,47.39
2019-01-20T23:50:23.275Z,47.21
2019-01-20T23:55:26.738Z,46.97
